Time;durP1;ratioP1;P1;durP2;ratioP2;P2;SDS_P1;SDS_P2;PMS_P1;PMS_P2;Temp;Humidity;BMP_temperature;BMP_pressure;BME280_temperature;BME280_humidity;BME280_pressure;Samples;Min_cycle;Max_cycle;Signal;HPM_P1;HPM_P2
2023/11/15 00:02:02;;;;;;;76.72;64.75;;;;;;;;;;10028876;28;20050;-71
2023/11/15 00:06:54;;;;;;;78.35;65.90;;;;;;;;;;10025097;28;20476;-71
2023/11/15 00:11:46;;;;;;;81.85;64.55;;;;;;;;;;10025997;28;20057;-71
2023/11/15 00:16:38;;;;;;;82.00;65.20;;;;;;;;;;10023859;28;20583;-71
2023/11/15 00:21:30;;;;;;;83.05;67.25;;;;;;;;;;10025083;28;20096;-72
2023/11/15 00:26:21;;;;;;;83.30;68.88;;;;;;;;;;10033834;28;20070;-71
2023/11/15 00:31:16;;;;;;;80.32;66.75;;;;;;;;;;10033088;28;20046;-71
2023/11/15 00:36:11;;;;;;;78.43;64.32;;;;;;;;;;10032979;28;20073;-71
2023/11/15 00:41:04;;;;;;;80.45;64.32;;;;;;;;;;10033209;28;20038;-71
2023/11/15 00:45:56;;;;;;;74.90;63.47;;;;;;;;;;10032183;28;20112;-70
2023/11/15 00:50:48;;;;;;;93.30;69.35;;;;;;;;;;10033361;28;20081;-70
2023/11/15 00:55:40;;;;;;;87.63;68.53;;;;;;;;;;10031236;28;20052;-71
2023/11/15 01:00:39;;;;;;;87.25;68.28;;;;;;;;;;10031503;28;20037;-70
2023/11/15 01:05:31;;;;;;;82.88;69.00;;;;;;;;;;10031796;28;20038;-70
2023/11/15 01:10:24;;;;;;;90.50;71.07;;;;;;;;;;10031297;28;20413;-70
2023/11/15 01:15:19;;;;;;;86.80;71.57;;;;;;;;;;10031388;28;20080;-71
2023/11/15 01:20:12;;;;;;;86.68;70.93;;;;;;;;;;10030047;28;20046;-70
2023/11/15 01:25:06;;;;;;;85.45;72.38;;;;;;;;;;10030596;28;20086;-71
2023/11/15 01:29:58;;;;;;;88.90;73.72;;;;;;;;;;10029134;28;20046;-71
2023/11/15 01:34:49;;;;;;;89.30;74.45;;;;;;;;;;10030556;28;20053;-71
2023/11/15 01:39:42;;;;;;;93.32;77.57;;;;;;;;;;10028805;28;20041;-71
2023/11/15 01:44:34;;;;;;;80.20;68.25;;;;;;;;;;10028463;28;20042;-73
2023/11/15 01:49:26;;;;;;;86.47;75.68;;;;;;;;;;10030555;28;20473;-71
2023/11/15 01:54:18;;;;;;;97.57;84.65;;;;;;;;;;10028625;28;20052;-71
2023/11/15 01:59:11;;;;;;;97.30;82.43;;;;;;;;;;10027889;28;20125;-71
2023/11/15 02:04:04;;;;;;;108.00;89.22;;;;;;;;;;10012171;28;20034;-71
2023/11/15 02:08:58;;;;;;;105.85;86.82;;;;;;;;;;10029209;28;20054;-71
2023/11/15 02:13:51;;;;;;;105.78;84.90;;;;;;;;;;10027150;28;20394;-71
2023/11/15 02:18:43;;;;;;;97.72;81.03;;;;;;;;;;10048675;28;20487;-71
2023/11/15 02:23:43;;;;;;;96.10;80.28;;;;;;;;;;10059797;28;20042;-70
2023/11/15 02:28:35;;;;;;;102.78;84.72;;;;;;;;;;10055787;28;20132;-71
2023/11/15 02:33:27;;;;;;;88.20;75.57;;;;;;;;;;10059616;28;20466;-71
2023/11/15 02:38:19;;;;;;;97.63;77.13;;;;;;;;;;10045987;28;20073;-71
2023/11/15 02:43:12;;;;;;;95.75;75.07;;;;;;;;;;10038919;28;20125;-71
2023/11/15 02:48:04;;;;;;;89.45;72.28;;;;;;;;;;10025605;28;20426;-71
2023/11/15 02:52:57;;;;;;;92.35;73.45;;;;;;;;;;10024694;28;20054;-71
2023/11/15 02:57:49;;;;;;;89.10;67.88;;;;;;;;;;10011817;28;20046;-71
2023/11/15 03:02:41;;;;;;;84.72;70.13;;;;;;;;;;10028378;28;20053;-71
2023/11/15 03:07:33;;;;;;;88.35;72.13;;;;;;;;;;10027972;28;20041;-71
2023/11/15 03:12:26;;;;;;;84.65;68.40;;;;;;;;;;10028926;28;20116;-71
2023/11/15 03:17:18;;;;;;;86.90;68.57;;;;;;;;;;10026823;28;20061;-70
2023/11/15 03:22:12;;;;;;;92.20;69.65;;;;;;;;;;10026328;28;20423;-71
2023/11/15 03:27:05;;;;;;;85.53;65.85;;;;;;;;;;10026640;28;20064;-71
2023/11/15 03:31:57;;;;;;;79.10;61.13;;;;;;;;;;10007401;28;20058;-71
2023/11/15 03:36:50;;;;;;;76.55;61.50;;;;;;;;;;10026898;28;20076;-71
2023/11/15 03:41:41;;;;;;;77.80;61.45;;;;;;;;;;10024683;28;20145;-71
2023/11/15 03:46:33;;;;;;;81.90;66.78;;;;;;;;;;10026633;28;20120;-71
2023/11/15 03:51:25;;;;;;;80.63;65.60;;;;;;;;;;10024620;28;20057;-71
2023/11/15 03:56:17;;;;;;;88.88;65.95;;;;;;;;;;10022685;28;20125;-70
2023/11/15 04:01:09;;;;;;;81.45;62.72;;;;;;;;;;10027611;28;20414;-72
2023/11/15 04:06:03;;;;;;;71.70;58.70;;;;;;;;;;10025921;28;20038;-70
2023/11/15 04:10:57;;;;;;;64.80;48.88;;;;;;;;;;10024398;28;20046;-70
2023/11/15 04:15:50;;;;;;;61.78;48.33;;;;;;;;;;10025377;28;20038;-71
2023/11/15 04:20:42;;;;;;;63.40;49.03;;;;;;;;;;10021183;28;20045;-71
2023/11/15 04:25:34;;;;;;;56.85;44.05;;;;;;;;;;10025335;28;20096;-71
2023/11/15 04:30:28;;;;;;;57.08;42.55;;;;;;;;;;10023987;28;20038;-71
2023/11/15 04:35:20;;;;;;;59.65;47.55;;;;;;;;;;10025201;28;20108;-71
2023/11/15 04:40:12;;;;;;;62.88;46.33;;;;;;;;;;10025497;28;20535;-71
2023/11/15 04:45:04;;;;;;;51.97;43.55;;;;;;;;;;10023711;28;20457;-72
2023/11/15 04:49:56;;;;;;;54.92;42.78;;;;;;;;;;10024249;28;20058;-71
2023/11/15 04:54:48;;;;;;;45.10;33.42;;;;;;;;;;10023265;28;20053;-71
2023/11/15 04:59:40;;;;;;;57.78;38.88;;;;;;;;;;10024368;28;20050;-71
2023/11/15 05:04:33;;;;;;;51.03;35.70;;;;;;;;;;10023757;28;20046;-71
2023/11/15 05:09:27;;;;;;;48.05;35.47;;;;;;;;;;10026758;28;20042;-71
2023/11/15 05:14:19;;;;;;;43.58;31.13;;;;;;;;;;10033320;28;20041;-71
2023/11/15 05:19:10;;;;;;;42.78;31.13;;;;;;;;;;10029664;28;20044;-72
2023/11/15 05:24:02;;;;;;;38.42;27.25;;;;;;;;;;10033090;28;20038;-71
2023/11/15 05:28:54;;;;;;;39.85;29.00;;;;;;;;;;10029450;28;20042;-71
2023/11/15 05:33:46;;;;;;;40.15;26.92;;;;;;;;;;10031574;28;20046;-71
2023/11/15 05:38:38;;;;;;;33.92;26.15;;;;;;;;;;10030663;28;20044;-71
2023/11/15 05:43:30;;;;;;;39.65;23.73;;;;;;;;;;10028786;28;20042;-71
2023/11/15 05:48:22;;;;;;;40.42;29.88;;;;;;;;;;10030978;28;20085;-71
2023/11/15 05:53:14;;;;;;;35.25;25.10;;;;;;;;;;10028837;28;20046;-71
2023/11/15 05:58:05;;;;;;;27.45;21.40;;;;;;;;;;10031948;28;20096;-71
2023/11/15 06:02:57;;;;;;;29.58;19.90;;;;;;;;;;10026577;28;20559;-72
2023/11/15 06:07:49;;;;;;;21.00;14.73;;;;;;;;;;10028308;28;20050;-71
2023/11/15 06:12:41;;;;;;;14.13;11.68;;;;;;;;;;10027459;28;20046;-72
2023/11/15 06:17:34;;;;;;;20.63;11.73;;;;;;;;;;10027963;28;20043;-70
2023/11/15 06:22:27;;;;;;;14.10;11.00;;;;;;;;;;10026375;28;20038;-71
2023/11/15 06:27:19;;;;;;;12.35;8.93;;;;;;;;;;10027142;28;20046;-71
2023/11/15 06:32:11;;;;;;;16.50;13.48;;;;;;;;;;10029952;28;20107;-71
2023/11/15 06:37:05;;;;;;;27.80;18.05;;;;;;;;;;10027750;28;20045;-71
2023/11/15 06:41:57;;;;;;;23.88;16.55;;;;;;;;;;10025092;28;20125;-71
2023/11/15 06:46:53;;;;;;;36.28;23.77;;;;;;;;;;10026726;28;20034;-71
2023/11/15 06:51:49;;;;;;;19.80;13.93;;;;;;;;;;10027187;28;20050;-71
2023/11/15 06:56:48;;;;;;;17.30;14.23;;;;;;;;;;10044522;28;20157;-71
2023/11/15 07:01:40;;;;;;;19.45;12.32;;;;;;;;;;10041861;28;20033;-73
2023/11/15 07:06:32;;;;;;;22.02;19.73;;;;;;;;;;10050422;28;20033;-71
2023/11/15 07:11:24;;;;;;;34.90;26.33;;;;;;;;;;10066043;28;20038;-71
2023/11/15 07:16:16;;;;;;;44.30;33.78;;;;;;;;;;10060506;28;20506;-71
2023/11/15 07:21:09;;;;;;;50.30;40.17;;;;;;;;;;10051067;28;20044;-71
2023/11/15 07:26:01;;;;;;;41.05;35.28;;;;;;;;;;10051008;28;20076;-71
2023/11/15 07:30:55;;;;;;;44.03;35.90;;;;;;;;;;10053792;28;20045;-71
2023/11/15 07:35:48;;;;;;;43.50;34.30;;;;;;;;;;10064657;28;20344;-72
2023/11/15 07:40:41;;;;;;;46.92;36.72;;;;;;;;;;10042086;28;20049;-72
2023/11/15 07:45:35;;;;;;;46.75;32.65;;;;;;;;;;10040848;28;20107;-71
2023/11/15 07:50:28;;;;;;;43.88;34.90;;;;;;;;;;10049330;28;20057;-72
2023/11/15 07:55:20;;;;;;;43.53;33.05;;;;;;;;;;10064328;28;20049;-72
2023/11/15 08:00:14;;;;;;;47.72;35.63;;;;;;;;;;10065014;28;20386;-71
2023/11/15 08:05:07;;;;;;;48.33;40.00;;;;;;;;;;10057077;28;20063;-71
2023/11/15 08:09:59;;;;;;;58.83;43.08;;;;;;;;;;10056385;28;20041;-72
2023/11/15 08:14:51;;;;;;;67.18;50.83;;;;;;;;;;10063752;28;20062;-72
2023/11/15 08:19:44;;;;;;;57.78;47.17;;;;;;;;;;10051537;28;20068;-72
2023/11/15 08:24:46;;;;;;;63.75;48.83;;;;;;;;;;10048301;28;20250;-71
2023/11/15 08:29:38;;;;;;;65.80;48.33;;;;;;;;;;10057600;28;20448;-71
2023/11/15 08:34:31;;;;;;;61.53;51.78;;;;;;;;;;10059884;28;20095;-71
2023/11/15 08:39:24;;;;;;;65.47;51.80;;;;;;;;;;10063453;28;20042;-71
2023/11/15 08:44:17;;;;;;;66.55;52.15;;;;;;;;;;10067144;28;20417;-71
2023/11/15 08:49:12;;;;;;;90.95;55.47;;;;;;;;;;10065469;28;20049;-71
2023/11/15 08:54:04;;;;;;;69.00;54.40;;;;;;;;;;10070569;28;20124;-71
2023/11/15 08:58:56;;;;;;;65.78;51.65;;;;;;;;;;10066080;28;20386;-71
2023/11/15 09:03:48;;;;;;;79.68;56.00;;;;;;;;;;10047093;28;20117;-71
2023/11/15 09:08:41;;;;;;;82.97;56.78;;;;;;;;;;10070472;28;20053;-71
2023/11/15 09:13:33;;;;;;;94.75;57.10;;;;;;;;;;10070663;28;20042;-71
2023/11/15 09:18:27;;;;;;;100.85;58.90;;;;;;;;;;10069709;28;20045;-72
2023/11/15 09:23:22;;;;;;;80.63;57.90;;;;;;;;;;10058336;28;20041;-71
2023/11/15 09:28:22;;;;;;;79.03;58.50;;;;;;;;;;10060470;28;20072;-71
2023/11/15 09:33:16;;;;;;;82.13;56.53;;;;;;;;;;10060755;28;20124;-71
2023/11/15 09:38:11;;;;;;;82.35;60.00;;;;;;;;;;10048943;28;20049;-71
2023/11/15 09:43:05;;;;;;;77.10;55.67;;;;;;;;;;10026666;28;20054;-71
2023/11/15 09:48:00;;;;;;;85.38;59.78;;;;;;;;;;10044339;28;20045;-70
2023/11/15 09:52:55;;;;;;;91.25;60.13;;;;;;;;;;10043161;28;20358;-71
2023/11/15 09:57:48;;;;;;;100.47;60.28;;;;;;;;;;10042908;28;20425;-71
2023/11/15 10:02:41;;;;;;;87.95;57.55;;;;;;;;;;10065416;28;20543;-71
2023/11/15 10:07:35;;;;;;;75.70;53.35;;;;;;;;;;10048664;28;20077;-71
2023/11/15 10:12:31;;;;;;;73.80;50.17;;;;;;;;;;10060154;28;20100;-71
2023/11/15 10:17:40;;;;;;;80.45;56.22;;;;;;;;;;10060964;28;20037;-70
2023/11/15 10:22:44;;;;;;;65.10;49.88;;;;;;;;;;10045690;28;20128;-70
2023/11/15 10:27:37;;;;;;;74.38;52.45;;;;;;;;;;10054384;28;20046;-71
2023/11/15 10:32:29;;;;;;;70.93;51.55;;;;;;;;;;10053168;28;20065;-71
2023/11/15 10:37:21;;;;;;;60.42;47.00;;;;;;;;;;10027714;28;20388;-71
2023/11/15 10:42:15;;;;;;;62.95;46.88;;;;;;;;;;10067425;28;20457;-71
2023/11/15 10:47:08;;;;;;;53.70;41.60;;;;;;;;;;10053424;28;20049;-71
2023/11/15 10:52:01;;;;;;;62.90;43.70;;;;;;;;;;10066637;28;20045;-71
2023/11/15 10:56:54;;;;;;;57.00;40.17;;;;;;;;;;10065112;28;20053;-71
2023/11/15 11:01:46;;;;;;;55.92;42.20;;;;;;;;;;10065442;28;20053;-71
2023/11/15 11:06:51;;;;;;;47.97;41.25;;;;;;;;;;10059060;28;20060;-70
2023/11/15 11:11:56;;;;;;;52.42;41.85;;;;;;;;;;10063493;28;20139;-71
2023/11/15 11:16:49;;;;;;;62.72;43.90;;;;;;;;;;10058142;28;20042;-71
2023/11/15 11:22:08;;;;;;;55.67;42.50;;;;;;;;;;10060761;28;20461;-72
2023/11/15 11:27:09;;;;;;;67.30;44.22;;;;;;;;;;10062445;28;20045;-72
2023/11/15 11:32:17;;;;;;;51.15;38.67;;;;;;;;;;10021976;28;20465;-71
2023/11/15 11:37:10;;;;;;;46.60;37.13;;;;;;;;;;10026838;28;20060;-74
2023/11/15 11:42:01;;;;;;;53.22;40.40;;;;;;;;;;10027602;28;20041;-73
2023/11/15 11:47:03;;;;;;;43.83;36.13;;;;;;;;;;10026511;28;20125;-74
2023/11/15 11:51:55;;;;;;;37.85;33.25;;;;;;;;;;10027215;28;20077;-73
2023/11/15 11:56:49;;;;;;;36.08;31.60;;;;;;;;;;10026348;28;20595;-73
2023/11/15 12:01:48;;;;;;;33.70;27.85;;;;;;;;;;10026376;28;20038;-75
2023/11/15 12:06:40;;;;;;;32.03;24.65;;;;;;;;;;10025896;28;20473;-73
2023/11/15 12:11:32;;;;;;;29.00;23.13;;;;;;;;;;10023944;28;20148;-73
2023/11/15 12:16:25;;;;;;;27.48;21.73;;;;;;;;;;10024726;28;20058;-74
2023/11/15 12:21:17;;;;;;;23.70;19.88;;;;;;;;;;10034172;28;20057;-75
2023/11/15 12:26:09;;;;;;;19.35;14.32;;;;;;;;;;10032168;28;20050;-75
2023/11/15 12:31:03;;;;;;;21.38;16.70;;;;;;;;;;10033068;28;20046;-75
2023/11/15 12:35:56;;;;;;;17.77;15.05;;;;;;;;;;10032856;28;20480;-75
2023/11/15 12:40:48;;;;;;;24.67;16.25;;;;;;;;;;10031795;28;20042;-75
2023/11/15 12:45:43;;;;;;;20.55;16.45;;;;;;;;;;10031698;28;20452;-75
2023/11/15 12:50:38;;;;;;;22.02;15.43;;;;;;;;;;10032566;28;20457;-75
2023/11/15 12:55:53;;;;;;;21.33;14.85;;;;;;;;;;10028495;28;20152;-74
2023/11/15 13:01:01;;;;;;;16.65;12.82;;;;;;;;;;10028997;28;20108;-75
2023/11/15 13:06:09;;;;;;;21.00;12.55;;;;;;;;;;10031836;28;20105;-75
2023/11/15 13:11:03;;;;;;;15.80;12.35;;;;;;;;;;10032188;28;20080;-75
2023/11/15 13:15:55;;;;;;;15.65;11.95;;;;;;;;;;10031179;28;20127;-75
2023/11/15 13:20:47;;;;;;;17.17;11.75;;;;;;;;;;10031787;28;20061;-75
2023/11/15 13:25:39;;;;;;;13.90;11.25;;;;;;;;;;10030815;28;20507;-75
2023/11/15 13:30:31;;;;;;;13.95;11.07;;;;;;;;;;10028256;28;20042;-75
2023/11/15 13:35:23;;;;;;;13.27;9.60;;;;;;;;;;10030771;28;20413;-75
2023/11/15 13:40:18;;;;;;;10.63;7.35;;;;;;;;;;10030544;28;20077;-75
2023/11/15 13:45:10;;;;;;;8.43;6.35;;;;;;;;;;10030424;28;20543;-75
2023/11/15 13:50:04;;;;;;;9.60;5.85;;;;;;;;;;10029953;28;20054;-75
2023/11/15 13:54:56;;;;;;;5.55;4.07;;;;;;;;;;10029974;28;20509;-74
2023/11/15 14:06:14;;;;;;;2.75;2.15;;;;;;;;;;10027772;28;20048;-72
2023/11/15 14:11:07;;;;;;;3.33;2.35;;;;;;;;;;10028631;28;20045;-71
2023/11/15 14:15:59;;;;;;;3.50;2.63;;;;;;;;;;10028421;28;20516;-73
2023/11/15 14:20:52;;;;;;;2.50;1.90;;;;;;;;;;10028972;28;20050;-72
2023/11/15 14:25:44;;;;;;;1.75;1.65;;;;;;;;;;10025752;28;20045;-72
2023/11/15 14:30:37;;;;;;;2.13;1.40;;;;;;;;;;10028810;28;20108;-73
2023/11/15 14:35:29;;;;;;;3.30;3.00;;;;;;;;;;10028386;28;20508;-72
2023/11/15 14:40:22;;;;;;;6.07;4.00;;;;;;;;;;10027756;28;20044;-72
2023/11/15 14:45:15;;;;;;;7.72;6.38;;;;;;;;;;10027504;28;20062;-72
2023/11/15 14:50:14;;;;;;;4.22;2.90;;;;;;;;;;10027881;28;20058;-72
2023/11/15 14:55:08;;;;;;;4.63;2.85;;;;;;;;;;10027840;28;20377;-73
2023/11/15 15:00:00;;;;;;;5.07;3.45;;;;;;;;;;10026537;28;20436;-72
2023/11/15 15:04:52;;;;;;;7.68;3.70;;;;;;;;;;10027249;28;20407;-72
2023/11/15 15:09:44;;;;;;;3.13;2.70;;;;;;;;;;10026126;28;20077;-72
2023/11/15 15:14:36;;;;;;;4.10;1.92;;;;;;;;;;10026388;28;20057;-72
2023/11/15 15:19:28;;;;;;;2.20;2.00;;;;;;;;;;10027018;28;20052;-72
2023/11/15 15:24:20;;;;;;;3.78;2.85;;;;;;;;;;10025900;28;20391;-73
2023/11/15 15:29:12;;;;;;;3.30;2.53;;;;;;;;;;10006852;28;20046;-72
2023/11/15 15:34:19;;;;;;;2.42;2.08;;;;;;;;;;10004830;28;20054;-72
2023/11/15 15:39:12;;;;;;;1.38;1.15;;;;;;;;;;10005519;28;20109;-72
2023/11/15 15:44:05;;;;;;;2.42;1.10;;;;;;;;;;10005132;28;20478;-72
2023/11/15 15:48:57;;;;;;;6.95;2.70;;;;;;;;;;10005868;28;20622;-72
2023/11/15 15:53:50;;;;;;;1.40;1.40;;;;;;;;;;10005161;28;20042;-72
2023/11/15 15:58:42;;;;;;;1.88;1.77;;;;;;;;;;10005351;28;20048;-72
2023/11/15 16:03:34;;;;;;;2.50;2.30;;;;;;;;;;10005558;28;20070;-73
2023/11/15 16:08:26;;;;;;;1.75;1.42;;;;;;;;;;10002854;28;20038;-72
2023/11/15 16:13:18;;;;;;;3.88;1.20;;;;;;;;;;10003936;28;20055;-72
2023/11/15 16:18:10;;;;;;;1.50;1.40;;;;;;;;;;10004076;28;20046;-72
2023/11/15 16:23:02;;;;;;;1.30;1.10;;;;;;;;;;10003970;28;20047;-72
2023/11/15 16:27:54;;;;;;;2.05;0.90;;;;;;;;;;10005008;28;20046;-72
2023/11/15 16:32:46;;;;;;;1.20;1.13;;;;;;;;;;10005866;28;20048;-72
2023/11/15 16:37:41;;;;;;;0.90;0.90;;;;;;;;;;10005109;28;20459;-72
2023/11/15 16:42:34;;;;;;;1.17;1.08;;;;;;;;;;10005173;28;20105;-72
2023/11/15 16:47:26;;;;;;;1.35;1.25;;;;;;;;;;10004911;28;20057;-72
2023/11/15 16:52:18;;;;;;;1.48;1.35;;;;;;;;;;10005345;28;20505;-72
2023/11/15 16:57:10;;;;;;;5.47;3.60;;;;;;;;;;10006655;28;20057;-72
2023/11/15 17:02:03;;;;;;;1.40;1.30;;;;;;;;;;10006994;28;20087;-72
2023/11/15 17:06:58;;;;;;;2.00;1.83;;;;;;;;;;10007915;28;20052;-72
2023/11/15 17:11:51;;;;;;;1.00;1.00;;;;;;;;;;10014720;28;20045;-72
2023/11/15 17:16:45;;;;;;;2.90;1.30;;;;;;;;;;10007624;28;20437;-72
2023/11/15 17:21:43;;;;;;;1.48;1.00;;;;;;;;;;10011615;28;20409;-72
2023/11/15 17:26:39;;;;;;;4.57;3.63;;;;;;;;;;10013630;28;20116;-72
2023/11/15 17:31:33;;;;;;;1.48;1.42;;;;;;;;;;10008643;28;20527;-72
2023/11/15 17:36:26;;;;;;;1.67;1.58;;;;;;;;;;10013572;28;20093;-72
2023/11/15 17:41:20;;;;;;;1.60;1.50;;;;;;;;;;10013062;28;20042;-72
2023/11/15 17:46:12;;;;;;;5.30;2.55;;;;;;;;;;10013688;28;20054;-72
2023/11/15 17:51:05;;;;;;;0.80;0.80;;;;;;;;;;10012016;28;20046;-72
2023/11/15 17:55:57;;;;;;;3.67;2.50;;;;;;;;;;10012281;28;20053;-72
2023/11/15 18:00:49;;;;;;;2.28;1.52;;;;;;;;;;10012556;28;20347;-72
2023/11/15 18:05:40;;;;;;;1.30;1.20;;;;;;;;;;10011695;28;20472;-72
2023/11/15 18:10:33;;;;;;;5.65;3.75;;;;;;;;;;10008425;28;20049;-72
2023/11/15 18:15:25;;;;;;;3.13;2.20;;;;;;;;;;10012294;28;20049;-72
2023/11/15 18:20:17;;;;;;;4.15;2.72;;;;;;;;;;10013338;28;20046;-72
2023/11/15 18:25:15;;;;;;;2.70;1.70;;;;;;;;;;10012188;28;20073;-71
2023/11/15 18:30:13;;;;;;;1.88;1.60;;;;;;;;;;10014512;28;20050;-72
2023/11/15 18:35:06;;;;;;;2.53;1.77;;;;;;;;;;10011363;28;20038;-72
2023/11/15 18:39:58;;;;;;;1.85;1.58;;;;;;;;;;10012124;28;20045;-72
2023/11/15 18:44:53;;;;;;;2.40;1.95;;;;;;;;;;10013774;28;20046;-72
2023/11/15 18:49:47;;;;;;;2.70;2.30;;;;;;;;;;10008275;28;20185;-72
2023/11/15 18:54:39;;;;;;;4.13;2.58;;;;;;;;;;10016192;28;20046;-72
2023/11/15 18:59:33;;;;;;;3.63;2.88;;;;;;;;;;10004875;28;20137;-72
2023/11/15 19:04:25;;;;;;;2.10;1.70;;;;;;;;;;10013412;28;20048;-72
2023/11/15 19:09:21;;;;;;;2.00;1.80;;;;;;;;;;10005404;28;20362;-72
2023/11/15 19:14:14;;;;;;;2.05;1.85;;;;;;;;;;10004842;28;20034;-72
2023/11/15 19:19:07;;;;;;;4.03;1.98;;;;;;;;;;10007425;28;20464;-72
2023/11/15 19:24:00;;;;;;;2.00;1.50;;;;;;;;;;10008653;28;20068;-72
2023/11/15 19:28:52;;;;;;;2.45;2.13;;;;;;;;;;10010492;28;20058;-72
2023/11/15 19:33:44;;;;;;;3.55;2.53;;;;;;;;;;10002833;28;20073;-72
2023/11/15 19:38:36;;;;;;;3.42;2.70;;;;;;;;;;10047038;28;20099;-72
2023/11/15 19:43:28;;;;;;;1.38;1.27;;;;;;;;;;10020110;28;20046;-72
2023/11/15 19:48:21;;;;;;;1.33;1.20;;;;;;;;;;10023282;28;20085;-72
2023/11/15 19:53:16;;;;;;;8.95;1.73;;;;;;;;;;10021883;28;20056;-72
2023/11/15 19:58:08;;;;;;;1.60;1.50;;;;;;;;;;10020360;28;20064;-72
2023/11/15 20:03:00;;;;;;;1.23;1.13;;;;;;;;;;10021047;28;20042;-72
2023/11/15 20:07:53;;;;;;;2.00;1.33;;;;;;;;;;10012894;28;20321;-72
2023/11/15 20:12:46;;;;;;;1.65;1.40;;;;;;;;;;10022573;28;20353;-71
2023/11/15 20:17:38;;;;;;;2.45;1.98;;;;;;;;;;10025305;28;20472;-72
2023/11/15 20:22:30;;;;;;;4.60;2.03;;;;;;;;;;10031714;28;20041;-72
2023/11/15 20:27:39;;;;;;;3.25;2.72;;;;;;;;;;10030109;28;20491;-72
2023/11/15 20:32:32;;;;;;;1.80;1.17;;;;;;;;;;10035664;28;20038;-71
2023/11/15 20:37:24;;;;;;;1.33;1.23;;;;;;;;;;10037351;28;20057;-72
2023/11/15 20:42:17;;;;;;;7.72;5.20;;;;;;;;;;10029346;28;20030;-72
2023/11/15 20:47:09;;;;;;;1.70;1.60;;;;;;;;;;10024584;28;20450;-72
2023/11/15 20:52:03;;;;;;;1.42;1.15;;;;;;;;;;10029058;28;20070;-72
2023/11/15 20:56:55;;;;;;;3.55;1.17;;;;;;;;;;10025459;28;20049;-71
2023/11/15 21:01:48;;;;;;;1.33;1.23;;;;;;;;;;10027468;28;20045;-72
2023/11/15 21:06:40;;;;;;;0.90;0.90;;;;;;;;;;10032940;28;20050;-72
2023/11/15 21:11:32;;;;;;;1.52;1.33;;;;;;;;;;10025317;28;20072;-72
2023/11/15 21:16:24;;;;;;;2.80;1.25;;;;;;;;;;10030351;28;20042;-72
2023/11/15 21:21:16;;;;;;;5.45;4.80;;;;;;;;;;10028254;28;20498;-71
2023/11/15 21:26:08;;;;;;;1.42;1.33;;;;;;;;;;10026363;28;20045;-72
2023/11/15 21:31:01;;;;;;;1.52;1.15;;;;;;;;;;10029116;28;20420;-71
2023/11/15 21:35:53;;;;;;;1.17;1.10;;;;;;;;;;10029231;28;20477;-72
2023/11/15 21:40:44;;;;;;;0.93;0.93;;;;;;;;;;10028775;28;20046;-72
2023/11/15 21:45:36;;;;;;;3.15;1.83;;;;;;;;;;10028304;28;20042;-72
2023/11/15 21:50:28;;;;;;;1.83;1.50;;;;;;;;;;10025337;28;20500;-72
2023/11/15 21:55:20;;;;;;;2.28;1.50;;;;;;;;;;10027391;28;20416;-72
2023/11/15 22:00:15;;;;;;;2.58;1.42;;;;;;;;;;10028355;28;20080;-72
2023/11/15 22:05:09;;;;;;;1.30;1.10;;;;;;;;;;10028171;28;20038;-72
2023/11/15 22:10:01;;;;;;;0.88;0.88;;;;;;;;;;10026037;28;20068;-72
2023/11/15 22:14:53;;;;;;;1.05;1.05;;;;;;;;;;10024002;28;20038;-72
2023/11/15 22:19:45;;;;;;;1.02;0.90;;;;;;;;;;10023583;28;20037;-72
2023/11/15 22:24:37;;;;;;;1.42;1.33;;;;;;;;;;10023427;28;20038;-72
2023/11/15 22:29:30;;;;;;;1.20;1.10;;;;;;;;;;10023345;28;20219;-72
2023/11/15 22:34:21;;;;;;;3.60;1.63;;;;;;;;;;10025293;28;20050;-72
2023/11/15 22:39:14;;;;;;;0.90;0.90;;;;;;;;;;10026711;28;20670;-72
2023/11/15 22:44:06;;;;;;;2.10;1.27;;;;;;;;;;10025937;28;20038;-72
2023/11/15 22:48:58;;;;;;;1.65;1.00;;;;;;;;;;10026046;28;20050;-72
2023/11/15 22:53:50;;;;;;;1.40;1.15;;;;;;;;;;10026229;28;20042;-72
2023/11/15 22:58:42;;;;;;;0.90;0.90;;;;;;;;;;10025252;28;20053;-72
2023/11/15 23:03:34;;;;;;;1.05;0.90;;;;;;;;;;10024943;28;20050;-72
2023/11/15 23:08:26;;;;;;;1.85;1.10;;;;;;;;;;10025242;28;20048;-71
2023/11/15 23:13:21;;;;;;;1.08;0.90;;;;;;;;;;10026660;28;20037;-72
2023/11/15 23:18:13;;;;;;;1.33;1.15;;;;;;;;;;10025396;28;20042;-72
2023/11/15 23:23:06;;;;;;;1.20;1.10;;;;;;;;;;10022060;28;20053;-72
2023/11/15 23:27:58;;;;;;;2.97;1.00;;;;;;;;;;9997690;28;20044;-72
2023/11/15 23:32:52;;;;;;;3.97;1.20;;;;;;;;;;9999331;28;20046;-72
2023/11/15 23:37:44;;;;;;;1.45;1.20;;;;;;;;;;9997520;28;20077;-71
2023/11/15 23:42:36;;;;;;;2.70;1.73;;;;;;;;;;10005577;28;20053;-72
2023/11/15 23:47:28;;;;;;;1.33;1.02;;;;;;;;;;9995632;28;20049;-72
2023/11/15 23:52:21;;;;;;;0.70;0.70;;;;;;;;;;9987182;28;20112;-72
2023/11/15 23:57:13;;;;;;;1.00;1.00;;;;;;;;;;9990999;28;20056;-72
